< < Back
Terminal Aerodrome Forecast


Current Version              Previous Versions:   1  2  3  4  5  6  7  8  9  

Terminal Aerodrome Forecast

830
FTUS42 KMLB 221136
TAFDAB
TAF
KDAB 221136Z 2212/2312 28003KT P6SM SCT060 SCT250
     FM221400 35009KT P6SM FEW030 SCT250
     FM221800 02013KT P6SM SCT040
     FM230000 05011KT P6SM SCT060
     FM230300 04005KT P6SM SCT060 SCT250=

Latest METAR

453
SAUS80 KWBC 221300 RRC
MTRDAB
METAR KDAB 221253Z 01007KT 10SM FEW035 FEW060 FEW250 26/18 A3008 RMK AO2
SLP186 T02610183


USA.gov is the U.S. government's official web portal to all federal, state and local government web resources and services.